createdAt,value
2022-11-07T00:00:36.221Z,5.94
2022-11-07T00:03:02.703Z,5.93
2022-11-07T00:05:29.585Z,5.98
2022-11-07T00:07:55.907Z,5.93
2022-11-07T00:10:22.219Z,5.94
2022-11-07T00:12:49.267Z,5.99
2022-11-07T00:15:15.733Z,5.92
2022-11-07T00:17:42.097Z,5.93
2022-11-07T00:20:09.481Z,5.95
2022-11-07T00:22:35.789Z,5.95
2022-11-07T00:25:02.116Z,6.03
2022-11-07T00:27:28.867Z,6.06
2022-11-07T00:29:55.607Z,6.10
2022-11-07T00:32:22.077Z,6.15
2022-11-07T00:34:49.118Z,6.22
2022-11-07T00:37:15.549Z,6.19
2022-11-07T00:39:41.882Z,6.24
2022-11-07T00:42:08.704Z,6.31
2022-11-07T00:44:35.148Z,6.37
2022-11-07T00:47:01.461Z,6.32
2022-11-07T00:49:28.185Z,6.26
2022-11-07T00:51:54.520Z,6.21
2022-11-07T00:54:20.876Z,6.16
2022-11-07T00:56:47.546Z,6.17
2022-11-07T00:59:13.922Z,6.12
2022-11-07T01:01:40.678Z,6.12
2022-11-07T01:04:26.658Z,6.11
2022-11-07T01:06:52.996Z,6.13
2022-11-07T01:09:21.471Z,6.12
2022-11-07T01:11:49.098Z,6.10
2022-11-07T01:14:17.422Z,6.10
2022-11-07T01:16:43.994Z,6.09
2022-11-07T01:19:11.199Z,6.10
2022-11-07T01:21:39.486Z,6.00
2022-11-07T01:24:08.613Z,5.97
2022-11-07T01:26:37.211Z,5.94
2022-11-07T01:29:04.176Z,5.99
2022-11-07T01:31:31.219Z,5.95
2022-11-07T01:33:59.556Z,5.86
2022-11-07T01:36:26.546Z,5.86
2022-11-07T01:38:52.968Z,5.73
2022-11-07T01:41:27.253Z,5.60
2022-11-07T01:44:08.589Z,5.60
2022-11-07T01:46:38.714Z,5.60
2022-11-07T01:49:25.706Z,5.51
2022-11-07T01:51:59.315Z,5.47
2022-11-07T01:54:29.307Z,5.42
2022-11-07T01:56:59.561Z,5.32
2022-11-07T01:59:30.702Z,5.30
2022-11-07T02:01:58.197Z,5.35
2022-11-07T02:04:27.412Z,5.31
2022-11-07T02:07:06.153Z,5.30
2022-11-07T02:09:32.593Z,5.22
2022-11-07T02:12:01.288Z,5.09
2022-11-07T02:14:29.131Z,5.00
2022-11-07T02:16:55.894Z,4.96
2022-11-07T02:19:35.094Z,4.96
2022-11-07T02:22:32.104Z,5.04
2022-11-07T02:25:02.694Z,5.07
2022-11-07T02:27:31.108Z,5.00
2022-11-07T02:30:05.028Z,5.04
2022-11-07T02:32:31.373Z,5.06
2022-11-07T02:35:38.835Z,4.79
2022-11-07T02:38:26.782Z,4.57
2022-11-07T02:40:58.587Z,4.41
2022-11-07T02:43:29.156Z,4.26
2022-11-07T02:45:58.645Z,4.27
2022-11-07T02:48:29.854Z,4.20
2022-11-07T02:50:56.598Z,4.27
2022-11-07T02:53:23.454Z,4.32
2022-11-07T02:55:49.808Z,4.42
2022-11-07T02:58:16.660Z,4.59
2022-11-07T03:00:42.979Z,4.72
2022-11-07T03:03:09.357Z,4.80
2022-11-07T03:05:36.206Z,4.79
2022-11-07T03:08:02.538Z,4.83
2022-11-07T03:10:28.866Z,4.93
2022-11-07T03:12:55.906Z,5.22
2022-11-07T03:15:22.266Z,5.29
2022-11-07T03:17:48.785Z,5.27
2022-11-07T03:20:15.140Z,5.22
2022-11-07T03:22:41.493Z,5.21
2022-11-07T03:25:08.829Z,5.14
2022-11-07T03:27:35.191Z,5.16
2022-11-07T03:30:01.587Z,5.24
2022-11-07T03:32:28.379Z,5.16
2022-11-07T03:34:54.670Z,5.17
2022-11-07T03:37:20.974Z,5.17
2022-11-07T03:39:47.749Z,5.16
2022-11-07T03:42:14.085Z,5.10
2022-11-07T03:44:40.498Z,5.01
2022-11-07T03:47:07.176Z,5.05
2022-11-07T03:49:33.489Z,5.02
2022-11-07T03:51:59.857Z,4.87
2022-11-07T03:54:27.429Z,4.92
2022-11-07T03:56:53.746Z,4.88
2022-11-07T03:59:20.577Z,4.91
2022-11-07T04:01:47.024Z,4.92
2022-11-07T04:04:13.417Z,4.86
2022-11-07T04:06:40.556Z,4.90
2022-11-07T04:09:07.146Z,4.85
2022-11-07T04:11:52.416Z,4.80
2022-11-07T04:14:37.133Z,4.81
2022-11-07T04:17:21.826Z,4.76
2022-11-07T04:19:50.481Z,4.69
2022-11-07T04:22:17.153Z,4.73
2022-11-07T04:24:46.207Z,4.58
2022-11-07T04:27:32.891Z,4.60
2022-11-07T04:29:59.895Z,4.58
2022-11-07T04:32:26.273Z,4.56
2022-11-07T04:34:52.636Z,4.47
2022-11-07T04:37:19.925Z,4.42
2022-11-07T04:39:46.240Z,4.24
2022-11-07T04:42:12.589Z,4.02
2022-11-07T04:44:39.272Z,3.96
2022-11-07T04:47:05.618Z,3.87
2022-11-07T04:49:32.289Z,3.86
2022-11-07T04:51:58.676Z,3.79
2022-11-07T04:54:24.994Z,3.60
2022-11-07T04:56:51.934Z,3.69
2022-11-07T04:59:18.254Z,3.78
2022-11-07T05:01:44.606Z,3.84
2022-11-07T05:04:11.289Z,3.87
2022-11-07T05:06:37.835Z,3.97
2022-11-07T05:09:04.333Z,4.06
2022-11-07T05:11:30.705Z,4.41
2022-11-07T05:13:57.369Z,4.70
2022-11-07T05:16:23.690Z,4.84
2022-11-07T05:18:50.005Z,4.97
2022-11-07T05:21:16.744Z,4.97
2022-11-07T05:23:43.076Z,4.94
2022-11-07T05:26:09.568Z,4.92
2022-11-07T05:28:39.557Z,4.84
2022-11-07T05:31:08.072Z,4.78
2022-11-07T05:33:35.218Z,4.76
2022-11-07T05:36:15.592Z,4.80
2022-11-07T05:38:43.699Z,4.95
2022-11-07T05:41:10.834Z,5.07
2022-11-07T05:43:38.651Z,5.05
2022-11-07T05:46:05.952Z,4.98
2022-11-07T05:48:33.050Z,4.97
2022-11-07T05:51:00.151Z,5.02
2022-11-07T05:53:27.292Z,5.00
2022-11-07T05:55:54.955Z,4.96
2022-11-07T05:58:21.872Z,4.90
2022-11-07T06:00:49.110Z,4.87
2022-11-07T06:03:15.643Z,4.93
2022-11-07T06:05:42.818Z,4.92
2022-11-07T06:08:11.850Z,4.90
2022-11-07T06:10:39.839Z,4.98
2022-11-07T06:13:10.257Z,4.76
2022-11-07T06:15:38.558Z,4.75
2022-11-07T06:18:07.606Z,4.60
2022-11-07T06:20:35.292Z,4.51
2022-11-07T06:23:04.187Z,4.62
2022-11-07T06:25:31.091Z,4.67
2022-11-07T06:28:09.327Z,4.54
2022-11-07T06:30:36.337Z,4.53
2022-11-07T06:33:04.704Z,4.66
2022-11-07T06:35:31.866Z,4.74
2022-11-07T06:38:03.352Z,4.86
2022-11-07T06:40:30.193Z,5.03
2022-11-07T06:42:56.605Z,5.27
2022-11-07T06:45:23.316Z,5.31
2022-11-07T06:47:49.658Z,5.16
2022-11-07T06:50:16.054Z,5.15
2022-11-07T06:52:42.910Z,5.16
2022-11-07T06:55:09.530Z,5.20
2022-11-07T06:57:35.846Z,5.28
2022-11-07T07:00:05.924Z,5.31
2022-11-07T07:02:56.922Z,5.40
2022-11-07T07:05:21.471Z,5.60
2022-11-07T07:07:48.186Z,5.75
2022-11-07T07:10:15.527Z,5.87
2022-11-07T07:12:42.476Z,5.92
2022-11-07T07:15:09.005Z,6.04
2022-11-07T07:17:36.028Z,6.53
2022-11-07T07:20:02.506Z,6.63
2022-11-07T07:22:28.817Z,6.97
2022-11-07T07:24:55.191Z,7.34
2022-11-07T07:27:21.872Z,7.42
2022-11-07T07:29:48.357Z,7.49
2022-11-07T07:32:14.726Z,7.10
2022-11-07T07:34:41.395Z,6.96
2022-11-07T07:37:09.124Z,7.34
2022-11-07T07:39:35.455Z,7.74
2022-11-07T07:42:02.314Z,8.29
2022-11-07T07:44:28.621Z,8.01
2022-11-07T07:46:54.958Z,7.93
2022-11-07T07:49:21.644Z,7.62
2022-11-07T07:51:47.956Z,7.70
2022-11-07T07:54:14.549Z,8.15
2022-11-07T07:56:41.258Z,8.35
2022-11-07T07:59:07.623Z,8.64
2022-11-07T08:01:34.196Z,9.23
2022-11-07T08:04:02.563Z,9.18
2022-11-07T08:06:29.822Z,9.33
2022-11-07T08:08:56.303Z,9.03
2022-11-07T08:11:22.965Z,9.25
2022-11-07T08:13:49.307Z,9.18
2022-11-07T08:16:15.743Z,9.15
2022-11-07T08:18:42.439Z,8.88
2022-11-07T08:21:09.116Z,8.77
2022-11-07T08:23:36.123Z,8.43
2022-11-07T08:26:04.897Z,8.86
2022-11-07T08:28:35.283Z,9.42
2022-11-07T08:31:06.007Z,9.27
2022-11-07T08:33:33.649Z,9.37
2022-11-07T08:36:01.475Z,9.57
2022-11-07T08:38:29.670Z,9.72
2022-11-07T08:40:57.266Z,9.67
2022-11-07T08:43:23.588Z,9.40
2022-11-07T08:45:50.377Z,9.46
2022-11-07T08:48:18.125Z,9.41
2022-11-07T08:50:44.813Z,9.58
2022-11-07T08:53:11.520Z,9.57
2022-11-07T08:55:38.269Z,9.47
2022-11-07T08:58:07.175Z,9.47
2022-11-07T09:00:35.009Z,9.28
2022-11-07T09:05:56.102Z,9.26
2022-11-07T09:08:22.976Z,9.31
2022-11-07T09:10:49.359Z,9.35
2022-11-07T09:13:15.946Z,9.36
2022-11-07T09:15:46.283Z,9.61
2022-11-07T09:18:16.819Z,9.75
2022-11-07T09:20:43.289Z,9.92
2022-11-07T09:23:09.712Z,9.69
2022-11-07T09:25:36.234Z,9.89
2022-11-07T09:28:03.232Z,9.75
2022-11-07T09:30:29.553Z,9.77
2022-11-07T09:32:57.105Z,9.74
2022-11-07T09:35:23.559Z,9.75
2022-11-07T09:37:50.923Z,9.77
2022-11-07T09:40:45.060Z,9.74
2022-11-07T09:43:17.915Z,9.81
2022-11-07T09:46:01.360Z,9.92
2022-11-07T09:48:37.057Z,9.87
2022-11-07T09:51:04.521Z,9.96
2022-11-07T09:53:41.514Z,10.05
2022-11-07T09:56:12.414Z,10.24
2022-11-07T09:58:51.420Z,10.40
2022-11-07T10:01:20.480Z,10.36
2022-11-07T10:06:46.732Z,10.18
2022-11-07T10:09:27.366Z,10.13
2022-11-07T10:12:08.807Z,10.22
2022-11-07T10:14:37.801Z,10.01
2022-11-07T10:17:22.867Z,10.10
2022-11-07T10:19:57.090Z,9.99
2022-11-07T10:22:38.595Z,10.00
2022-11-07T10:25:21.167Z,10.43
2022-11-07T10:27:55.121Z,10.48
2022-11-07T10:30:21.924Z,10.62
2022-11-07T10:33:03.437Z,10.51
2022-11-07T10:35:42.321Z,10.45
2022-11-07T10:38:25.522Z,10.39
2022-11-07T10:40:52.631Z,10.55
2022-11-07T10:43:29.136Z,10.57
2022-11-07T10:45:56.914Z,10.63
2022-11-07T10:48:23.218Z,10.67
2022-11-07T10:50:54.113Z,10.73
2022-11-07T10:53:22.452Z,10.89
2022-11-07T10:55:51.367Z,10.91
2022-11-07T10:58:26.744Z,10.93
2022-11-07T11:01:17.469Z,10.98
2022-11-07T11:03:46.830Z,11.00
2022-11-07T11:06:19.289Z,10.96
2022-11-07T11:08:47.336Z,10.92
2022-11-07T11:11:27.102Z,11.24
2022-11-07T11:14:14.278Z,11.36
2022-11-07T11:16:42.671Z,11.49
2022-11-07T11:19:27.311Z,11.66
2022-11-07T11:21:57.461Z,11.43
2022-11-07T11:24:31.781Z,11.52
2022-11-07T11:27:23.355Z,11.65
2022-11-07T11:30:01.960Z,11.48
2022-11-07T11:32:37.909Z,11.52
2022-11-07T11:35:19.166Z,11.38
2022-11-07T11:37:54.162Z,11.35
2022-11-07T11:40:22.491Z,11.29
2022-11-07T11:43:11.831Z,11.63
2022-11-07T11:45:50.005Z,11.45
2022-11-07T11:48:30.752Z,11.43
2022-11-07T11:51:03.763Z,11.50
2022-11-07T11:53:30.799Z,11.33
2022-11-07T11:56:06.289Z,11.47
2022-11-07T11:58:50.645Z,11.38
2022-11-07T12:01:32.129Z,11.41
2022-11-07T12:04:32.084Z,11.33
2022-11-07T12:07:56.073Z,11.40
2022-11-07T12:10:34.242Z,11.55
2022-11-07T12:13:17.848Z,11.49
2022-11-07T12:16:05.872Z,11.57
2022-11-07T12:18:39.688Z,11.54
2022-11-07T12:21:18.149Z,11.53
2022-11-07T12:24:08.402Z,11.73
2022-11-07T12:26:51.324Z,11.62
2022-11-07T12:29:46.503Z,11.73
2022-11-07T12:32:35.106Z,11.79
2022-11-07T12:35:30.917Z,11.76
2022-11-07T12:38:05.914Z,11.61
2022-11-07T12:40:54.820Z,11.74
2022-11-07T12:43:56.226Z,11.79
2022-11-07T12:46:48.724Z,11.69
2022-11-07T12:49:45.758Z,11.72
2022-11-07T12:52:34.134Z,11.77
2022-11-07T12:55:04.642Z,11.75
2022-11-07T12:57:33.334Z,11.73
2022-11-07T13:00:08.251Z,11.82
2022-11-07T13:02:51.067Z,12.06
2022-11-07T13:05:32.762Z,11.98
2022-11-07T13:08:15.384Z,11.90
2022-11-07T13:11:03.568Z,11.84
2022-11-07T13:13:55.033Z,11.91
2022-11-07T13:16:31.351Z,11.99
2022-11-07T13:19:25.396Z,11.96
2022-11-07T13:22:07.808Z,11.96
2022-11-07T13:24:38.538Z,11.98
2022-11-07T13:27:21.070Z,12.05
2022-11-07T13:29:47.486Z,12.01
2022-11-07T13:32:15.296Z,11.96
2022-11-07T13:35:02.786Z,11.88
2022-11-07T13:37:33.182Z,11.85
2022-11-07T13:40:05.099Z,11.83
2022-11-07T13:42:33.461Z,11.78
2022-11-07T13:45:23.990Z,11.75
2022-11-07T13:47:54.443Z,11.74
2022-11-07T13:50:31.982Z,11.84
2022-11-07T13:53:02.646Z,11.84
2022-11-07T13:55:46.591Z,11.92
2022-11-07T13:58:18.857Z,12.09
2022-11-07T14:00:45.270Z,12.03
2022-11-07T14:03:24.695Z,12.09
2022-11-07T14:05:53.148Z,12.05
2022-11-07T14:08:28.897Z,12.09
2022-11-07T14:10:55.365Z,12.15
2022-11-07T14:13:28.576Z,12.06
2022-11-07T14:15:58.557Z,12.03
2022-11-07T14:18:29.872Z,11.97
2022-11-07T14:20:57.768Z,11.97
2022-11-07T14:23:35.365Z,11.89
2022-11-07T14:26:15.428Z,11.92
2022-11-07T14:28:42.247Z,11.76
2022-11-07T14:31:41.805Z,11.70
2022-11-07T14:34:13.867Z,11.64
2022-11-07T14:36:54.932Z,11.63
2022-11-07T14:39:23.660Z,11.49
2022-11-07T14:41:51.450Z,11.51
2022-11-07T14:44:36.285Z,11.43
2022-11-07T14:47:17.506Z,11.35
2022-11-07T14:49:47.099Z,11.43
2022-11-07T14:52:24.591Z,11.23
2022-11-07T14:54:58.676Z,11.29
2022-11-07T14:57:25.590Z,11.21
2022-11-07T14:59:52.326Z,11.12
2022-11-07T15:02:22.012Z,11.08
2022-11-07T15:04:48.519Z,11.01
2022-11-07T15:07:24.848Z,10.84
2022-11-07T15:09:51.541Z,10.85
2022-11-07T15:12:23.746Z,10.85
2022-11-07T15:15:12.318Z,10.84
2022-11-07T15:17:48.203Z,10.65
2022-11-07T15:20:32.661Z,10.59
2022-11-07T15:23:01.326Z,10.57
2022-11-07T15:25:33.849Z,10.57
2022-11-07T15:28:19.178Z,10.64
2022-11-07T15:30:47.177Z,10.70
2022-11-07T15:33:16.332Z,10.66
2022-11-07T15:35:45.237Z,10.23
2022-11-07T15:38:19.924Z,10.20
2022-11-07T15:40:47.017Z,10.14
2022-11-07T15:43:13.499Z,10.13
2022-11-07T15:45:40.911Z,10.05
2022-11-07T15:48:09.454Z,9.68
2022-11-07T15:50:43.059Z,9.61
2022-11-07T15:53:16.551Z,9.51
2022-11-07T15:55:43.014Z,9.18
2022-11-07T15:58:14.314Z,9.02
2022-11-07T16:00:41.405Z,9.02
2022-11-07T16:03:13.446Z,8.90
2022-11-07T16:05:40.652Z,8.75
2022-11-07T16:08:09.560Z,8.75
2022-11-07T16:10:35.950Z,8.77
2022-11-07T16:13:05.187Z,8.75
2022-11-07T16:15:33.223Z,8.84
2022-11-07T16:17:59.528Z,8.82
2022-11-07T16:20:26.265Z,8.80
2022-11-07T16:22:52.642Z,8.73
2022-11-07T16:25:23.114Z,8.63
2022-11-07T16:27:53.140Z,8.64
2022-11-07T16:30:20.322Z,8.67
2022-11-07T16:32:47.282Z,8.62
2022-11-07T16:35:14.213Z,8.53
2022-11-07T16:37:40.817Z,8.37
2022-11-07T16:40:11.305Z,8.17
2022-11-07T16:42:38.304Z,8.06
2022-11-07T16:45:05.221Z,7.89
2022-11-07T16:47:32.328Z,7.75
2022-11-07T16:49:59.497Z,7.63
2022-11-07T16:52:27.993Z,7.43
2022-11-07T16:54:54.303Z,7.19
2022-11-07T16:57:23.669Z,7.06
2022-11-07T16:59:52.241Z,6.97
2022-11-07T17:02:26.451Z,6.93
2022-11-07T17:04:54.312Z,6.90
2022-11-07T17:07:22.628Z,6.83
2022-11-07T17:09:50.160Z,6.69
2022-11-07T17:12:21.837Z,6.52
2022-11-07T17:14:48.706Z,6.49
2022-11-07T17:17:17.561Z,6.51
2022-11-07T17:19:44.333Z,6.41
2022-11-07T17:22:11.402Z,6.28
2022-11-07T17:24:38.309Z,6.17
2022-11-07T17:27:16.738Z,6.10
2022-11-07T17:29:43.399Z,5.95
2022-11-07T17:32:09.700Z,5.81
2022-11-07T17:34:36.012Z,5.79
2022-11-07T17:37:03.115Z,5.73
2022-11-07T17:39:29.496Z,5.78
2022-11-07T17:41:56.217Z,5.77
2022-11-07T17:44:22.671Z,5.69
2022-11-07T17:46:50.212Z,5.59
2022-11-07T17:49:19.736Z,5.58
2022-11-07T17:51:46.138Z,5.57
2022-11-07T17:54:14.357Z,5.56
2022-11-07T17:56:42.416Z,5.56
2022-11-07T17:59:13.210Z,5.52
2022-11-07T18:01:40.459Z,5.53
2022-11-07T18:04:09.399Z,5.53
2022-11-07T18:06:37.997Z,5.55
2022-11-07T18:09:07.502Z,5.62
2022-11-07T18:11:35.240Z,5.77
2022-11-07T18:14:02.421Z,5.76
2022-11-07T18:16:32.248Z,5.70
2022-11-07T18:19:00.098Z,5.70
2022-11-07T18:21:27.595Z,5.71
2022-11-07T18:23:54.211Z,5.77
2022-11-07T18:26:27.127Z,5.71
2022-11-07T18:28:54.065Z,5.62
2022-11-07T18:31:22.858Z,5.55
2022-11-07T18:33:52.457Z,5.46
2022-11-07T18:36:21.840Z,5.40
2022-11-07T18:38:48.512Z,5.41
2022-11-07T18:41:18.352Z,5.52
2022-11-07T18:43:45.437Z,5.48
2022-11-07T18:46:14.865Z,5.46
2022-11-07T18:48:42.059Z,5.32
2022-11-07T18:51:11.861Z,5.35
2022-11-07T18:53:39.038Z,5.31
2022-11-07T18:56:07.126Z,5.23
2022-11-07T18:58:35.689Z,5.20
2022-11-07T19:01:08.524Z,5.18
2022-11-07T19:03:36.035Z,5.17
2022-11-07T19:06:11.469Z,5.10
2022-11-07T19:08:40.424Z,5.04
2022-11-07T19:11:13.293Z,4.99
2022-11-07T19:13:42.149Z,4.92
2022-11-07T19:16:10.842Z,4.84
2022-11-07T19:18:38.132Z,4.80
2022-11-07T19:21:05.231Z,4.75
2022-11-07T19:23:34.665Z,4.69
2022-11-07T19:26:01.621Z,4.59
2022-11-07T19:28:28.013Z,4.26
2022-11-07T19:30:55.050Z,4.01
2022-11-07T19:33:21.528Z,3.97
2022-11-07T19:35:58.672Z,3.92
2022-11-07T19:38:25.038Z,3.97
2022-11-07T19:40:51.375Z,4.05
2022-11-07T19:43:17.979Z,4.07
2022-11-07T19:45:44.582Z,4.02
2022-11-07T19:48:11.793Z,3.99
2022-11-07T19:50:39.454Z,3.91
2022-11-07T19:53:06.924Z,3.87
2022-11-07T19:55:33.438Z,3.93
2022-11-07T19:58:00.461Z,3.93
2022-11-07T20:00:26.874Z,3.84
2022-11-07T20:02:53.725Z,3.75
2022-11-07T20:05:27.472Z,3.43
2022-11-07T20:07:57.040Z,3.37
2022-11-07T20:10:26.209Z,3.35
2022-11-07T20:12:53.219Z,3.28
2022-11-07T20:15:19.586Z,3.26
2022-11-07T20:17:45.922Z,3.26
2022-11-07T20:20:13.793Z,3.26
2022-11-07T20:22:46.402Z,3.26
2022-11-07T20:25:13.373Z,3.35
2022-11-07T20:27:40.062Z,3.37
2022-11-07T20:30:07.362Z,3.40
2022-11-07T20:32:34.278Z,3.39
2022-11-07T20:35:00.606Z,3.33
2022-11-07T20:37:26.914Z,3.30
2022-11-07T20:39:53.744Z,3.25
2022-11-07T20:42:20.099Z,3.26
2022-11-07T20:44:46.544Z,3.32
2022-11-07T20:47:13.015Z,3.29
2022-11-07T20:49:40.873Z,3.24
2022-11-07T20:52:07.596Z,3.13
2022-11-07T20:54:35.960Z,3.11
2022-11-07T20:57:03.154Z,3.13
2022-11-07T20:59:31.348Z,3.09
2022-11-07T21:02:03.137Z,3.10
2022-11-07T21:04:44.583Z,3.14
2022-11-07T21:07:19.976Z,3.12
2022-11-07T21:09:47.195Z,3.12
2022-11-07T21:12:13.794Z,3.06
2022-11-07T21:14:41.989Z,3.02
2022-11-07T21:17:09.641Z,2.94
2022-11-07T21:19:36.053Z,2.85
2022-11-07T21:22:03.959Z,2.87
2022-11-07T21:24:31.182Z,2.84
2022-11-07T21:26:58.254Z,2.82
2022-11-07T21:29:29.329Z,2.83
2022-11-07T21:31:56.525Z,2.81
2022-11-07T21:34:23.756Z,2.78
2022-11-07T21:36:50.124Z,2.80
2022-11-07T21:39:17.312Z,2.87
2022-11-07T21:41:44.030Z,2.83
2022-11-07T21:44:11.784Z,2.79
2022-11-07T21:46:38.206Z,2.70
2022-11-07T21:49:06.583Z,2.64
2022-11-07T21:51:34.509Z,2.62
2022-11-07T21:54:01.566Z,2.60
2022-11-07T21:56:34.558Z,2.52
2022-11-07T21:59:04.501Z,2.46
2022-11-07T22:01:35.627Z,2.40
2022-11-07T22:04:07.513Z,2.51
2022-11-07T22:06:37.789Z,2.40
2022-11-07T22:09:05.730Z,2.37
2022-11-07T22:11:32.371Z,2.15
2022-11-07T22:13:59.562Z,1.93
2022-11-07T22:16:26.125Z,1.85
2022-11-07T22:18:52.635Z,1.75
2022-11-07T22:21:22.065Z,1.69
2022-11-07T22:23:49.292Z,1.64
2022-11-07T22:26:19.390Z,1.59
2022-11-07T22:28:46.520Z,1.57
2022-11-07T22:31:23.094Z,1.58
2022-11-07T22:33:50.775Z,1.59
2022-11-07T22:36:17.606Z,1.61
2022-11-07T22:38:44.793Z,1.59
2022-11-07T22:41:16.764Z,1.58
2022-11-07T22:43:43.331Z,1.56
2022-11-07T22:46:19.700Z,1.54
2022-11-07T22:48:47.034Z,1.54
2022-11-07T22:51:22.677Z,1.54
2022-11-07T22:53:58.836Z,1.61
2022-11-07T22:56:26.520Z,1.66
2022-11-07T22:58:53.185Z,1.66
2022-11-07T23:01:25.399Z,1.61
2022-11-07T23:03:53.519Z,1.68
2022-11-07T23:06:21.653Z,1.70
2022-11-07T23:08:48.367Z,1.55
2022-11-07T23:11:45.428Z,1.44
2022-11-07T23:14:08.210Z,1.39
2022-11-07T23:16:37.526Z,1.33
2022-11-07T23:19:09.056Z,1.26
2022-11-07T23:21:36.238Z,1.22
2022-11-07T23:24:03.318Z,1.21
2022-11-07T23:26:35.170Z,1.21
2022-11-07T23:29:10.140Z,1.17
2022-11-07T23:31:38.710Z,1.26
2022-11-07T23:34:05.981Z,1.25
2022-11-07T23:36:32.833Z,1.16
2022-11-07T23:39:06.194Z,1.17
2022-11-07T23:41:33.770Z,1.13
2022-11-07T23:44:00.382Z,1.09
2022-11-07T23:46:46.002Z,1.06
2022-11-07T23:49:31.189Z,1.00
2022-11-07T23:51:57.660Z,0.95
2022-11-07T23:54:42.638Z,0.93
2022-11-07T23:57:09.659Z,0.91
2022-11-07T23:59:54.622Z,0.89
